Claxton — WCU9257 — position and weather

sailwx.info

Track history (hours):
 
Tides and Currents Weather Stations Pressure Air Temp Water Temp Dewpoint Dewpoint Depression Visibility Wind Speed Wind Dir Waves Ship Positions

Claxton

Owner: G & H TOWING COMPANY, GALVESTON, TX. More information available from US FCC via Universal Licensing System and Coast Guard Vessel Documentation Center.

Last reported at 2018-Feb-25 21:17 UTC. Time now 2018-Feb-25 21:48 UTC.
Position N 29°45' W 095°11'.

Length 27 m; draft 4.9 m.

Type: Tug. MMSI: 366921670.

Date/timePositionNaut miles runAvg speedWind from/ knotsBaromVisibWave heightAir tempDewpointWater temp
2018-Feb-25 21:17N 29°45' W 095°11'2 7.9
2018-Feb-25 20:59N 29°44' W 095°13'3 0.9
2018-Feb-25 18:04N 29°45' W 095°10'0 0.0
2018-Feb-25 17:44N 29°45' W 095°10'0 0.0
2018-Feb-25 17:29N 29°45' W 095°10'0 0.0
2018-Feb-25 16:56N 29°45' W 095°10'1 0.3
2018-Feb-25 13:50N 29°44' W 095°09'2 5.4
2018-Feb-25 13:30N 29°44' W 095°07'1 1.1
2018-Feb-25 12:58N 29°45' W 095°07'0 0.0
2018-Feb-25 12:28N 29°45' W 095°07'0 0.0
2018-Feb-25 11:55N 29°45' W 095°07'0 0.1
2018-Feb-25 11:23N 29°44' W 095°07'1 1.3
2018-Feb-25 10:56N 29°45' W 095°06'0 0.0
2018-Feb-25 10:15N 29°45' W 095°06'1 1.9
2018-Feb-25 09:56N 29°44' W 095°07'0 0.0
2018-Feb-25 07:50N 29°44' W 095°07'0 0.9
2018-Feb-25 07:30N 29°44' W 095°07'0 0.2
2018-Feb-25 06:51N 29°44' W 095°07'1 0.3
2018-Feb-25 04:34N 29°44' W 095°07'1 7.1
2018-Feb-25 04:28N 29°44' W 095°07'0 0.4
2018-Feb-25 04:00N 29°45' W 095°07'0 0.0
2018-Feb-25 03:30N 29°45' W 095°07'1 0.9
2018-Feb-25 02:36N 29°44' W 095°07'0 0.3
2018-Feb-25 02:30N 29°44' W 095°07'1 1.6
2018-Feb-25 01:58N 29°45' W 095°07'0 0.0
2018-Feb-25 00:05N 29°45' W 095°07'1 4.7
2018-Feb-24 23:56N 29°45' W 095°06'0 0.0
2018-Feb-24 23:30N 29°45' W 095°06'0 1.0
2018-Feb-24 22:59N 29°45' W 095°06'1 0.5
2018-Feb-24 21:31N 29°45' W 095°06'0 6.4
2018-Feb-24 21:30N 29°45' W 095°06'0 0.6
2018-Feb-24 20:58N 29°45' W 095°06'1 2.4
2018-Feb-24 20:30N 29°46' W 095°05'9 0.5
2018-Feb-24 00:12N 29°44' W 095°16'2 7.1
2018-Feb-23 23:56N 29°44' W 095°14'0 0.5
2018-Feb-23 23:18N 29°44' W 095°13'5 1.2
2018-Feb-23 19:28N 29°44' W 095°08'0 0.5
2018-Feb-23 18:57N 29°44' W 095°08'1 2.3
2018-Feb-23 18:30N 29°45' W 095°07'0 0.1
2018-Feb-23 18:00N 29°44' W 095°07'1 1.9
2018-Feb-23 17:30N 29°44' W 095°08'0 0.0
2018-Feb-23 16:58N 29°44' W 095°08'0 0.6
2018-Feb-23 16:30N 29°44' W 095°08'1 0.1
2018-Feb-23 08:08N 29°44' W 095°07'2 7.2
2018-Feb-23 07:54N 29°44' W 095°09'4 0.2
2018-Feb-22 12:18N 29°44' W 095°13'4 7.0
2018-Feb-22 11:42N 29°44' W 095°09'2 7.5
2018-Feb-22 11:29N 29°44' W 095°07'0 0.0
2018-Feb-22 07:17N 29°45' W 095°07'2 6.5
2018-Feb-22 06:59N 29°44' W 095°09'6 3.5
2018-Feb-22 05:10N 29°44' W 095°16'0 0.0
2018-Feb-22 04:59N 29°44' W 095°16'9 1.6
2018-Feb-21 23:30N 29°45' W 095°06'1 0.3
2018-Feb-21 21:54N 29°44' W 095°07'0 0.0
2018-Feb-21 14:34N 29°45' W 095°07'2 0.1
2018-Feb-20 18:04N 29°44' W 095°09'1 0.5
2018-Feb-20 16:45N 29°44' W 095°09'1 0.5
2018-Feb-20 13:37N 29°45' W 095°11'0 0.2
2018-Feb-20 13:26N 29°45' W 095°11'1 0.2
2018-Feb-20 09:46N 29°45' W 095°11'0 0.1
2018-Feb-20 08:12N 29°45' W 095°11'0 2.4
2018-Feb-20 08:00N 29°45' W 095°10'1 0.4
2018-Feb-20 05:54N 29°45' W 095°11'0 0.1
2018-Feb-20 05:30N 29°45' W 095°11'1 1.8
2018-Feb-20 05:00N 29°45' W 095°10'0 0.2
2018-Feb-20 03:28N 29°45' W 095°10'3 5.5
2018-Feb-20 03:00N 29°44' W 095°08'0 0.0
2018-Feb-20 02:30N 29°44' W 095°08'1 1.9
2018-Feb-20 01:53N 29°45' W 095°06'0 0.8
2018-Feb-20 01:30N 29°45' W 095°06'0 0.1
2018-Feb-20 00:59N 29°45' W 095°06'0 0.3
2018-Feb-20 00:28N 29°45' W 095°06'1 2.6
2018-Feb-20 00:00N 29°46' W 095°05'1 1.5
2018-Feb-19 23:13N 29°45' W 095°06'0 0.1
2018-Feb-19 22:39N 29°45' W 095°06'1 3.4
2018-Feb-19 22:28N 29°45' W 095°06'2 3.7
2018-Feb-19 21:52N 29°44' W 095°03'4 7.3
2018-Feb-19 21:20N 29°42' W 094°60'1 3.3
2018-Feb-19 20:59N 29°41' W 095°01'0 0.0
2018-Feb-19 20:30N 29°41' W 095°01'0 0.0
2018-Feb-19 20:00N 29°41' W 095°01'1 2.7
2018-Feb-19 19:30N 29°41' W 094°59'0 0.1
2018-Feb-19 18:52N 29°41' W 094°59'3 7.6
2018-Feb-19 18:30N 29°43' W 095°01'5 1.4
2018-Feb-19 15:06N 29°45' W 095°07'0 0.1
2018-Feb-19 14:20N 29°45' W 095°07'0 0.0
2018-Feb-19 13:59N 29°45' W 095°07'0 0.0
2018-Feb-19 13:30N 29°45' W 095°07'0 0.1
2018-Feb-19 12:46N 29°45' W 095°07'0 0.1
2018-Feb-19 09:27N 29°44' W 095°07'0 0.0
2018-Feb-19 08:42N 29°44' W 095°07'0 0.0
2018-Feb-19 08:24N 29°44' W 095°07'0 0.0
2018-Feb-19 07:57N 29°44' W 095°07'0 0.0
2018-Feb-19 07:27N 29°44' W 095°07'0 0.0
2018-Feb-19 06:00N 29°44' W 095°07'1 0.3
2018-Feb-19 02:51N 29°45' W 095°06'1 1.3
2018-Feb-19 01:42N 29°44' W 095°07'1 1.7
2018-Feb-19 01:23N 29°44' W 095°07'0 0.0
2018-Feb-19 00:56N 29°44' W 095°07'0 0.0
2018-Feb-19 00:28N 29°44' W 095°07'0 0.0
2018-Feb-18 22:51N 29°44' W 095°07'0 0.0
2018-Feb-18 22:21N 29°44' W 095°07'0 0.0
2018-Feb-18 21:02N 29°44' W 095°07'0 0.0
2018-Feb-18 14:37N 29°44' W 095°07'0 0.2
2018-Feb-18 13:49N 29°45' W 095°07'0 0.0
2018-Feb-18 13:25N 29°45' W 095°07'0 0.0
2018-Feb-18 12:43N 29°45' W 095°07'0 0.0
2018-Feb-18 12:25N 29°45' W 095°07'0 0.0
2018-Feb-18 11:19N 29°45' W 095°07'0 0.0
2018-Feb-18 10:52N 29°45' W 095°07'0 0.0
2018-Feb-18 10:28N 29°45' W 095°07'0 0.0
2018-Feb-18 09:58N 29°45' W 095°07'0 0.0
2018-Feb-18 09:31N 29°45' W 095°07'0 0.0
2018-Feb-18 08:46N 29°45' W 095°07'0 0.0
2018-Feb-18 08:30N 29°45' W 095°07'0 0.0
2018-Feb-18 07:42N 29°45' W 095°07'0 0.0
2018-Feb-18 07:30N 29°45' W 095°07'0 0.0
2018-Feb-18 06:57N 29°45' W 095°07'0 0.0
2018-Feb-18 06:30N 29°45' W 095°07'0 0.0
2018-Feb-18 06:00N 29°45' W 095°07'0 0.0
2018-Feb-18 05:27N 29°45' W 095°07'0 0.0
2018-Feb-18 04:54N 29°45' W 095°07'0 0.0
2018-Feb-18 04:24N 29°45' W 095°07'0 0.0
2018-Feb-18 03:46N 29°45' W 095°07'2 4.0
2018-Feb-18 03:23N 29°46' W 095°05'0 0.0
2018-Feb-18 02:54N 29°46' W 095°05'1 1.7
2018-Feb-18 02:03N 29°45' W 095°04'0 8.1
2018-Feb-18 02:00N 29°45' W 095°04'3 1.8
2018-Feb-18 00:05N 29°44' W 095°08'0 0.2
2018-Feb-17 23:45N 29°44' W 095°08'1 2.5
2018-Feb-17 23:13N 29°45' W 095°06'0 0.4
2018-Feb-17 22:31N 29°45' W 095°07'0 0.0
2018-Feb-17 22:28N 29°45' W 095°07'0 0.0
2018-Feb-17 20:50N 29°44' W 095°07'0 0.0
2018-Feb-17 16:39N 29°44' W 095°07'0 0.0
2018-Feb-17 16:21N 29°44' W 095°07'0 0.0
2018-Feb-17 14:39N 29°44' W 095°07'0 0.0
2018-Feb-17 11:09N 29°44' W 095°07'0 0.0
2018-Feb-17 09:03N 29°44' W 095°07'0 0.0
2018-Feb-17 08:57N 29°44' W 095°07'0 0.0
2018-Feb-17 08:27N 29°44' W 095°07'0 0.0
2018-Feb-17 07:09N 29°44' W 095°07'0 0.0
2018-Feb-17 06:57N 29°44' W 095°07'0 0.0
2018-Feb-17 06:21N 29°44' W 095°07'0 0.0
2018-Feb-17 05:45N 29°44' W 095°07'0 0.0
2018-Feb-17 05:09N 29°44' W 095°07'0 0.0
2018-Feb-17 04:57N 29°44' W 095°07'0 0.0
2018-Feb-17 02:45N 29°44' W 095°07'0 0.0
2018-Feb-17 02:27N 29°44' W 095°07'0 0.0
2018-Feb-17 01:59N 29°44' W 095°07'0 0.1
2018-Feb-16 22:25N 29°44' W 095°07'0 0.1
2018-Feb-16 21:59N 29°44' W 095°07'4 6.4
2018-Feb-16 21:24N 29°45' W 095°11'4 1.7
2018-Feb-16 18:43N 29°44' W 095°16'0 0.0
2018-Feb-16 18:19N 29°44' W 095°16'0 0.0
2018-Feb-16 16:55N 29°44' W 095°16'0 0.0
2018-Feb-16 16:16N 29°44' W 095°16'0 0.0
2018-Feb-16 03:00N 29°44' W 095°16'  
Track history (hours):
 
Tides and Currents Weather Stations Pressure Air Temp Water Temp Dewpoint Dewpoint Depression Visibility Wind Speed Wind Dir Waves Ship Positions

Claxton

Owner: G & H TOWING COMPANY, GALVESTON, TX. More information available from US FCC via Universal Licensing System and Coast Guard Vessel Documentation Center.

Last reported at 2018-Feb-25 21:17 UTC. Time now 2018-Feb-25 21:48 UTC.
Position N 29°45' W 095°11'.

Length 27 m; draft 4.9 m.

Type: Tug. MMSI: 366921670.

Date/timePositionNaut miles runAvg speedWind from/ knotsBaromVisibWave heightAir tempDewpointWater temp
2018-Feb-25 21:17N 29°45' W 095°11'2 7.9
2018-Feb-25 20:59N 29°44' W 095°13'3 0.9
2018-Feb-25 18:04N 29°45' W 095°10'0 0.0
2018-Feb-25 17:44N 29°45' W 095°10'0 0.0
2018-Feb-25 17:29N 29°45' W 095°10'0 0.0
2018-Feb-25 16:56N 29°45' W 095°10'1 0.3
2018-Feb-25 13:50N 29°44' W 095°09'2 5.4
2018-Feb-25 13:30N 29°44' W 095°07'1 1.1
2018-Feb-25 12:58N 29°45' W 095°07'0 0.0
2018-Feb-25 12:28N 29°45' W 095°07'0 0.0
2018-Feb-25 11:55N 29°45' W 095°07'0 0.1
2018-Feb-25 11:23N 29°44' W 095°07'1 1.3
2018-Feb-25 10:56N 29°45' W 095°06'0 0.0
2018-Feb-25 10:15N 29°45' W 095°06'1 1.9
2018-Feb-25 09:56N 29°44' W 095°07'0 0.0
2018-Feb-25 07:50N 29°44' W 095°07'0 0.9
2018-Feb-25 07:30N 29°44' W 095°07'0 0.2
2018-Feb-25 06:51N 29°44' W 095°07'1 0.3
2018-Feb-25 04:34N 29°44' W 095°07'1 7.1
2018-Feb-25 04:28N 29°44' W 095°07'0 0.4
2018-Feb-25 04:00N 29°45' W 095°07'0 0.0
2018-Feb-25 03:30N 29°45' W 095°07'1 0.9
2018-Feb-25 02:36N 29°44' W 095°07'0 0.3
2018-Feb-25 02:30N 29°44' W 095°07'1 1.6
2018-Feb-25 01:58N 29°45' W 095°07'0 0.0
2018-Feb-25 00:05N 29°45' W 095°07'1 4.7
2018-Feb-24 23:56N 29°45' W 095°06'0 0.0
2018-Feb-24 23:30N 29°45' W 095°06'0 1.0
2018-Feb-24 22:59N 29°45' W 095°06'1 0.5
2018-Feb-24 21:31N 29°45' W 095°06'0 6.4
2018-Feb-24 21:30N 29°45' W 095°06'0 0.6
2018-Feb-24 20:58N 29°45' W 095°06'1 2.4
2018-Feb-24 20:30N 29°46' W 095°05'9 0.5
2018-Feb-24 00:12N 29°44' W 095°16'2 7.1
2018-Feb-23 23:56N 29°44' W 095°14'0 0.5
2018-Feb-23 23:18N 29°44' W 095°13'5 1.2
2018-Feb-23 19:28N 29°44' W 095°08'0 0.5
2018-Feb-23 18:57N 29°44' W 095°08'1 2.3
2018-Feb-23 18:30N 29°45' W 095°07'0 0.1
2018-Feb-23 18:00N 29°44' W 095°07'1 1.9
2018-Feb-23 17:30N 29°44' W 095°08'0 0.0
2018-Feb-23 16:58N 29°44' W 095°08'0 0.6
2018-Feb-23 16:30N 29°44' W 095°08'1 0.1
2018-Feb-23 08:08N 29°44' W 095°07'2 7.2
2018-Feb-23 07:54N 29°44' W 095°09'4 0.2
2018-Feb-22 12:18N 29°44' W 095°13'4 7.0
2018-Feb-22 11:42N 29°44' W 095°09'2 7.5
2018-Feb-22 11:29N 29°44' W 095°07'0 0.0
2018-Feb-22 07:17N 29°45' W 095°07'2 6.5
2018-Feb-22 06:59N 29°44' W 095°09'6 3.5
2018-Feb-22 05:10N 29°44' W 095°16'0 0.0
2018-Feb-22 04:59N 29°44' W 095°16'9 1.6
2018-Feb-21 23:30N 29°45' W 095°06'1 0.3
2018-Feb-21 21:54N 29°44' W 095°07'0 0.0
2018-Feb-21 14:34N 29°45' W 095°07'2 0.1
2018-Feb-20 18:04N 29°44' W 095°09'1 0.5
2018-Feb-20 16:45N 29°44' W 095°09'1 0.5
2018-Feb-20 13:37N 29°45' W 095°11'0 0.2
2018-Feb-20 13:26N 29°45' W 095°11'1 0.2
2018-Feb-20 09:46N 29°45' W 095°11'0 0.1
2018-Feb-20 08:12N 29°45' W 095°11'0 2.4
2018-Feb-20 08:00N 29°45' W 095°10'1 0.4
2018-Feb-20 05:54N 29°45' W 095°11'0 0.1
2018-Feb-20 05:30N 29°45' W 095°11'1 1.8
2018-Feb-20 05:00N 29°45' W 095°10'0 0.2
2018-Feb-20 03:28N 29°45' W 095°10'3 5.5
2018-Feb-20 03:00N 29°44' W 095°08'0 0.0
2018-Feb-20 02:30N 29°44' W 095°08'1 1.9
2018-Feb-20 01:53N 29°45' W 095°06'0 0.8
2018-Feb-20 01:30N 29°45' W 095°06'0 0.1
2018-Feb-20 00:59N 29°45' W 095°06'0 0.3
2018-Feb-20 00:28N 29°45' W 095°06'1 2.6
2018-Feb-20 00:00N 29°46' W 095°05'1 1.5
2018-Feb-19 23:13N 29°45' W 095°06'0 0.1
2018-Feb-19 22:39N 29°45' W 095°06'1 3.4
2018-Feb-19 22:28N 29°45' W 095°06'2 3.7
2018-Feb-19 21:52N 29°44' W 095°03'4 7.3
2018-Feb-19 21:20N 29°42' W 094°60'1 3.3
2018-Feb-19 20:59N 29°41' W 095°01'0 0.0
2018-Feb-19 20:30N 29°41' W 095°01'0 0.0
2018-Feb-19 20:00N 29°41' W 095°01'1 2.7
2018-Feb-19 19:30N 29°41' W 094°59'0 0.1
2018-Feb-19 18:52N 29°41' W 094°59'3 7.6
2018-Feb-19 18:30N 29°43' W 095°01'5 1.4
2018-Feb-19 15:06N 29°45' W 095°07'0 0.1
2018-Feb-19 14:20N 29°45' W 095°07'0 0.0
2018-Feb-19 13:59N 29°45' W 095°07'0 0.0
2018-Feb-19 13:30N 29°45' W 095°07'0 0.1
2018-Feb-19 12:46N 29°45' W 095°07'0 0.1
2018-Feb-19 09:27N 29°44' W 095°07'0 0.0
2018-Feb-19 08:42N 29°44' W 095°07'0 0.0
2018-Feb-19 08:24N 29°44' W 095°07'0 0.0
2018-Feb-19 07:57N 29°44' W 095°07'0 0.0
2018-Feb-19 07:27N 29°44' W 095°07'0 0.0
2018-Feb-19 06:00N 29°44' W 095°07'1 0.3
2018-Feb-19 02:51N 29°45' W 095°06'1 1.3
2018-Feb-19 01:42N 29°44' W 095°07'1 1.7
2018-Feb-19 01:23N 29°44' W 095°07'0 0.0
2018-Feb-19 00:56N 29°44' W 095°07'0 0.0
2018-Feb-19 00:28N 29°44' W 095°07'0 0.0
2018-Feb-18 22:51N 29°44' W 095°07'0 0.0
2018-Feb-18 22:21N 29°44' W 095°07'0 0.0
2018-Feb-18 21:02N 29°44' W 095°07'0 0.0
2018-Feb-18 14:37N 29°44' W 095°07'0 0.2
2018-Feb-18 13:49N 29°45' W 095°07'0 0.0
2018-Feb-18 13:25N 29°45' W 095°07'0 0.0
2018-Feb-18 12:43N 29°45' W 095°07'0 0.0
2018-Feb-18 12:25N 29°45' W 095°07'0 0.0
2018-Feb-18 11:19N 29°45' W 095°07'0 0.0
2018-Feb-18 10:52N 29°45' W 095°07'0 0.0
2018-Feb-18 10:28N 29°45' W 095°07'0 0.0
2018-Feb-18 09:58N 29°45' W 095°07'0 0.0
2018-Feb-18 09:31N 29°45' W 095°07'0 0.0
2018-Feb-18 08:46N 29°45' W 095°07'0 0.0
2018-Feb-18 08:30N 29°45' W 095°07'0 0.0
2018-Feb-18 07:42N 29°45' W 095°07'0 0.0
2018-Feb-18 07:30N 29°45' W 095°07'0 0.0
2018-Feb-18 06:57N 29°45' W 095°07'0 0.0
2018-Feb-18 06:30N 29°45' W 095°07'0 0.0
2018-Feb-18 06:00N 29°45' W 095°07'0 0.0
2018-Feb-18 05:27N 29°45' W 095°07'0 0.0
2018-Feb-18 04:54N 29°45' W 095°07'0 0.0
2018-Feb-18 04:24N 29°45' W 095°07'0 0.0
2018-Feb-18 03:46N 29°45' W 095°07'2 4.0
2018-Feb-18 03:23N 29°46' W 095°05'0 0.0
2018-Feb-18 02:54N 29°46' W 095°05'1 1.7
2018-Feb-18 02:03N 29°45' W 095°04'0 8.1
2018-Feb-18 02:00N 29°45' W 095°04'3 1.8
2018-Feb-18 00:05N 29°44' W 095°08'0 0.2
2018-Feb-17 23:45N 29°44' W 095°08'1 2.5
2018-Feb-17 23:13N 29°45' W 095°06'0 0.4
2018-Feb-17 22:31N 29°45' W 095°07'0 0.0
2018-Feb-17 22:28N 29°45' W 095°07'0 0.0
2018-Feb-17 20:50N 29°44' W 095°07'0 0.0
2018-Feb-17 16:39N 29°44' W 095°07'0 0.0
2018-Feb-17 16:21N 29°44' W 095°07'0 0.0
2018-Feb-17 14:39N 29°44' W 095°07'0 0.0
2018-Feb-17 11:09N 29°44' W 095°07'0 0.0
2018-Feb-17 09:03N 29°44' W 095°07'0 0.0
2018-Feb-17 08:57N 29°44' W 095°07'0 0.0
2018-Feb-17 08:27N 29°44' W 095°07'0 0.0
2018-Feb-17 07:09N 29°44' W 095°07'0 0.0
2018-Feb-17 06:57N 29°44' W 095°07'0 0.0
2018-Feb-17 06:21N 29°44' W 095°07'0 0.0
2018-Feb-17 05:45N 29°44' W 095°07'0 0.0
2018-Feb-17 05:09N 29°44' W 095°07'0 0.0
2018-Feb-17 04:57N 29°44' W 095°07'0 0.0
2018-Feb-17 02:45N 29°44' W 095°07'0 0.0
2018-Feb-17 02:27N 29°44' W 095°07'0 0.0
2018-Feb-17 01:59N 29°44' W 095°07'0 0.1
2018-Feb-16 22:25N 29°44' W 095°07'0 0.1
2018-Feb-16 21:59N 29°44' W 095°07'4 6.4
2018-Feb-16 21:24N 29°45' W 095°11'4 1.7
2018-Feb-16 18:43N 29°44' W 095°16'0 0.0
2018-Feb-16 18:19N 29°44' W 095°16'0 0.0
2018-Feb-16 16:55N 29°44' W 095°16'0 0.0
2018-Feb-16 16:16N 29°44' W 095°16'0 0.0
2018-Feb-16 03:00N 29°44' W 095°16'  

Dump ship's entire track history